sensor_id;sensor_type;location;lat;lon;timestamp;P1;durP1;ratioP1;P2;durP2;ratioP2
25637;SDS011;13496;51.040;13.680;2023-04-25T00:00:30;1.65;;;1.10;;
25637;SDS011;13496;51.040;13.680;2023-04-25T00:05:32;1.33;;;0.93;;
25637;SDS011;13496;51.040;13.680;2023-04-25T00:10:34;1.08;;;1.08;;
25637;SDS011;13496;51.040;13.680;2023-04-25T00:15:36;1.13;;;0.85;;
25637;SDS011;13496;51.040;13.680;2023-04-25T00:20:39;1.15;;;1.00;;
25637;SDS011;13496;51.040;13.680;2023-04-25T00:25:41;1.75;;;1.17;;
25637;SDS011;13496;51.040;13.680;2023-04-25T00:30:43;1.05;;;0.95;;
25637;SDS011;13496;51.040;13.680;2023-04-25T00:35:44;1.00;;;1.00;;
25637;SDS011;13496;51.040;13.680;2023-04-25T00:40:46;1.75;;;1.13;;
25637;SDS011;13496;51.040;13.680;2023-04-25T00:45:48;0.90;;;0.90;;
25637;SDS011;13496;51.040;13.680;2023-04-25T00:50:56;1.10;;;1.00;;
25637;SDS011;13496;51.040;13.680;2023-04-25T00:55:59;1.10;;;1.00;;
25637;SDS011;13496;51.040;13.680;2023-04-25T01:01:01;1.15;;;1.05;;
25637;SDS011;13496;51.040;13.680;2023-04-25T01:06:03;1.00;;;1.00;;
25637;SDS011;13496;51.040;13.680;2023-04-25T01:11:06;0.85;;;0.80;;
25637;SDS011;13496;51.040;13.680;2023-04-25T01:16:07;1.10;;;1.08;;
25637;SDS011;13496;51.040;13.680;2023-04-25T01:21:10;1.17;;;1.00;;
25637;SDS011;13496;51.040;13.680;2023-04-25T01:26:13;0.90;;;0.90;;
25637;SDS011;13496;51.040;13.680;2023-04-25T01:31:15;1.08;;;0.98;;
25637;SDS011;13496;51.040;13.680;2023-04-25T01:36:19;0.93;;;0.93;;
25637;SDS011;13496;51.040;13.680;2023-04-25T01:41:22;1.00;;;1.00;;
25637;SDS011;13496;51.040;13.680;2023-04-25T01:46:25;1.10;;;1.05;;
25637;SDS011;13496;51.040;13.680;2023-04-25T01:51:27;1.30;;;1.00;;
25637;SDS011;13496;51.040;13.680;2023-04-25T01:56:32;1.45;;;1.08;;
25637;SDS011;13496;51.040;13.680;2023-04-25T02:01:37;1.10;;;0.98;;
25637;SDS011;13496;51.040;13.680;2023-04-25T02:06:54;0.90;;;0.90;;
25637;SDS011;13496;51.040;13.680;2023-04-25T02:11:57;1.20;;;1.10;;
25637;SDS011;13496;51.040;13.680;2023-04-25T02:16:59;1.30;;;1.00;;
25637;SDS011;13496;51.040;13.680;2023-04-25T02:22:01;1.60;;;0.93;;
25637;SDS011;13496;51.040;13.680;2023-04-25T02:27:03;0.95;;;0.95;;
25637;SDS011;13496;51.040;13.680;2023-04-25T02:32:05;1.00;;;1.00;;
25637;SDS011;13496;51.040;13.680;2023-04-25T02:37:06;1.05;;;0.95;;
25637;SDS011;13496;51.040;13.680;2023-04-25T02:42:08;1.10;;;1.00;;
25637;SDS011;13496;51.040;13.680;2023-04-25T02:47:10;1.20;;;1.10;;
25637;SDS011;13496;51.040;13.680;2023-04-25T02:52:11;1.08;;;0.98;;
25637;SDS011;13496;51.040;13.680;2023-04-25T02:57:13;1.45;;;1.00;;
25637;SDS011;13496;51.040;13.680;2023-04-25T03:02:16;0.88;;;0.88;;
25637;SDS011;13496;51.040;13.680;2023-04-25T03:07:17;1.05;;;1.00;;
25637;SDS011;13496;51.040;13.680;2023-04-25T03:12:19;1.10;;;1.10;;
25637;SDS011;13496;51.040;13.680;2023-04-25T03:17:21;1.02;;;1.02;;
25637;SDS011;13496;51.040;13.680;2023-04-25T03:22:24;1.30;;;1.20;;
25637;SDS011;13496;51.040;13.680;2023-04-25T03:27:26;1.05;;;1.05;;
25637;SDS011;13496;51.040;13.680;2023-04-25T03:32:28;0.95;;;0.90;;
25637;SDS011;13496;51.040;13.680;2023-04-25T03:37:30;0.90;;;0.90;;
25637;SDS011;13496;51.040;13.680;2023-04-25T03:42:32;1.00;;;1.00;;
25637;SDS011;13496;51.040;13.680;2023-04-25T03:47:33;1.08;;;1.08;;
25637;SDS011;13496;51.040;13.680;2023-04-25T03:52:35;0.90;;;0.90;;
25637;SDS011;13496;51.040;13.680;2023-04-25T03:57:38;1.77;;;1.35;;
25637;SDS011;13496;51.040;13.680;2023-04-25T04:02:40;1.10;;;1.00;;
25637;SDS011;13496;51.040;13.680;2023-04-25T04:07:43;1.15;;;1.10;;
25637;SDS011;13496;51.040;13.680;2023-04-25T04:12:46;1.50;;;1.13;;
25637;SDS011;13496;51.040;13.680;2023-04-25T04:17:48;0.80;;;0.80;;
25637;SDS011;13496;51.040;13.680;2023-04-25T04:22:50;1.42;;;1.33;;
25637;SDS011;13496;51.040;13.680;2023-04-25T04:27:54;1.13;;;1.13;;
25637;SDS011;13496;51.040;13.680;2023-04-25T04:33:14;1.38;;;1.15;;
25637;SDS011;13496;51.040;13.680;2023-04-25T04:38:18;1.40;;;1.30;;
25637;SDS011;13496;51.040;13.680;2023-04-25T04:43:20;1.92;;;1.50;;
25637;SDS011;13496;51.040;13.680;2023-04-25T04:48:32;1.20;;;1.10;;
25637;SDS011;13496;51.040;13.680;2023-04-25T04:53:58;1.20;;;1.10;;
25637;SDS011;13496;51.040;13.680;2023-04-25T04:59:22;1.67;;;1.30;;
25637;SDS011;13496;51.040;13.680;2023-04-25T05:04:53;1.65;;;1.23;;
25637;SDS011;13496;51.040;13.680;2023-04-25T05:10:02;1.40;;;1.30;;
25637;SDS011;13496;51.040;13.680;2023-04-25T05:15:19;1.20;;;1.10;;
25637;SDS011;13496;51.040;13.680;2023-04-25T05:20:27;1.30;;;1.20;;
25637;SDS011;13496;51.040;13.680;2023-04-25T05:25:40;2.22;;;1.50;;
25637;SDS011;13496;51.040;13.680;2023-04-25T05:30:49;2.88;;;1.42;;
25637;SDS011;13496;51.040;13.680;2023-04-25T05:36:03;1.63;;;1.35;;
25637;SDS011;13496;51.040;13.680;2023-04-25T05:41:06;4.60;;;1.58;;
25637;SDS011;13496;51.040;13.680;2023-04-25T05:46:28;2.10;;;1.30;;
25637;SDS011;13496;51.040;13.680;2023-04-25T05:52:00;1.50;;;1.40;;
25637;SDS011;13496;51.040;13.680;2023-04-25T05:57:25;2.40;;;1.25;;
25637;SDS011;13496;51.040;13.680;2023-04-25T06:02:29;1.85;;;1.70;;
25637;SDS011;13496;51.040;13.680;2023-04-25T06:07:31;1.58;;;1.30;;
25637;SDS011;13496;51.040;13.680;2023-04-25T06:12:33;1.50;;;1.40;;
25637;SDS011;13496;51.040;13.680;2023-04-25T06:17:35;2.53;;;1.80;;
25637;SDS011;13496;51.040;13.680;2023-04-25T06:22:37;1.60;;;1.50;;
25637;SDS011;13496;51.040;13.680;2023-04-25T06:27:39;1.60;;;1.50;;
25637;SDS011;13496;51.040;13.680;2023-04-25T06:32:41;3.60;;;1.50;;
25637;SDS011;13496;51.040;13.680;2023-04-25T06:37:43;1.45;;;1.30;;
25637;SDS011;13496;51.040;13.680;2023-04-25T06:42:46;3.88;;;1.73;;
25637;SDS011;13496;51.040;13.680;2023-04-25T06:48:06;3.67;;;1.70;;
25637;SDS011;13496;51.040;13.680;2023-04-25T06:53:08;3.35;;;1.88;;
25637;SDS011;13496;51.040;13.680;2023-04-25T06:58:11;3.90;;;1.52;;
25637;SDS011;13496;51.040;13.680;2023-04-25T07:03:26;2.00;;;1.50;;
25637;SDS011;13496;51.040;13.680;2023-04-25T07:08:33;1.92;;;1.67;;
25637;SDS011;13496;51.040;13.680;2023-04-25T07:13:36;3.00;;;1.70;;
25637;SDS011;13496;51.040;13.680;2023-04-25T07:18:38;2.33;;;1.75;;
25637;SDS011;13496;51.040;13.680;2023-04-25T07:23:39;2.63;;;1.45;;
25637;SDS011;13496;51.040;13.680;2023-04-25T07:28:46;4.68;;;1.90;;
25637;SDS011;13496;51.040;13.680;2023-04-25T07:33:51;2.70;;;1.70;;
25637;SDS011;13496;51.040;13.680;2023-04-25T07:38:52;1.75;;;1.52;;
25637;SDS011;13496;51.040;13.680;2023-04-25T07:43:54;1.88;;;1.63;;
25637;SDS011;13496;51.040;13.680;2023-04-25T07:48:56;3.08;;;1.88;;
25637;SDS011;13496;51.040;13.680;2023-04-25T07:53:58;1.73;;;1.48;;
25637;SDS011;13496;51.040;13.680;2023-04-25T07:59:01;2.08;;;1.70;;
25637;SDS011;13496;51.040;13.680;2023-04-25T08:04:03;2.35;;;1.60;;
25637;SDS011;13496;51.040;13.680;2023-04-25T08:09:18;1.98;;;1.70;;
25637;SDS011;13496;51.040;13.680;2023-04-25T08:14:21;2.35;;;1.70;;
25637;SDS011;13496;51.040;13.680;2023-04-25T08:19:24;1.92;;;1.73;;
25637;SDS011;13496;51.040;13.680;2023-04-25T08:24:27;2.35;;;1.60;;
25637;SDS011;13496;51.040;13.680;2023-04-25T08:29:29;1.77;;;1.40;;
25637;SDS011;13496;51.040;13.680;2023-04-25T08:34:31;2.00;;;1.80;;
25637;SDS011;13496;51.040;13.680;2023-04-25T08:39:38;1.80;;;1.70;;
25637;SDS011;13496;51.040;13.680;2023-04-25T08:45:07;1.80;;;1.70;;
25637;SDS011;13496;51.040;13.680;2023-04-25T08:50:13;2.10;;;1.70;;
25637;SDS011;13496;51.040;13.680;2023-04-25T08:55:15;2.00;;;1.80;;
25637;SDS011;13496;51.040;13.680;2023-04-25T09:00:18;2.25;;;1.58;;
25637;SDS011;13496;51.040;13.680;2023-04-25T09:05:21;1.75;;;1.60;;
25637;SDS011;13496;51.040;13.680;2023-04-25T09:10:27;1.63;;;1.52;;
25637;SDS011;13496;51.040;13.680;2023-04-25T09:15:32;1.85;;;1.70;;
25637;SDS011;13496;51.040;13.680;2023-04-25T09:20:52;1.73;;;1.60;;
25637;SDS011;13496;51.040;13.680;2023-04-25T09:25:55;1.90;;;1.70;;
25637;SDS011;13496;51.040;13.680;2023-04-25T09:30:57;2.28;;;1.75;;
25637;SDS011;13496;51.040;13.680;2023-04-25T09:36:09;1.70;;;1.50;;
25637;SDS011;13496;51.040;13.680;2023-04-25T09:41:41;1.73;;;1.63;;
25637;SDS011;13496;51.040;13.680;2023-04-25T09:46:43;1.77;;;1.60;;
25637;SDS011;13496;51.040;13.680;2023-04-25T09:51:57;2.60;;;1.77;;
25637;SDS011;13496;51.040;13.680;2023-04-25T09:57:05;2.63;;;1.92;;
25637;SDS011;13496;51.040;13.680;2023-04-25T10:02:24;7.07;;;2.03;;
25637;SDS011;13496;51.040;13.680;2023-04-25T10:07:30;4.13;;;2.08;;
25637;SDS011;13496;51.040;13.680;2023-04-25T10:12:33;3.10;;;1.90;;
25637;SDS011;13496;51.040;13.680;2023-04-25T10:17:35;6.50;;;1.98;;
25637;SDS011;13496;51.040;13.680;2023-04-25T10:22:41;2.10;;;1.80;;
25637;SDS011;13496;51.040;13.680;2023-04-25T10:27:45;3.20;;;1.63;;
25637;SDS011;13496;51.040;13.680;2023-04-25T10:32:47;2.20;;;1.88;;
25637;SDS011;13496;51.040;13.680;2023-04-25T10:48:43;1.92;;;1.60;;
25637;SDS011;13496;51.040;13.680;2023-04-25T10:53:57;1.80;;;1.70;;
25637;SDS011;13496;51.040;13.680;2023-04-25T10:59:14;3.20;;;2.13;;
25637;SDS011;13496;51.040;13.680;2023-04-25T11:09:23;2.00;;;1.90;;
25637;SDS011;13496;51.040;13.680;2023-04-25T11:14:26;2.47;;;1.90;;
25637;SDS011;13496;51.040;13.680;2023-04-25T11:19:28;1.80;;;1.70;;
25637;SDS011;13496;51.040;13.680;2023-04-25T11:24:31;2.30;;;2.03;;
25637;SDS011;13496;51.040;13.680;2023-04-25T11:29:35;1.70;;;1.60;;
25637;SDS011;13496;51.040;13.680;2023-04-25T11:34:37;2.08;;;1.88;;
25637;SDS011;13496;51.040;13.680;2023-04-25T11:39:42;1.60;;;1.50;;
25637;SDS011;13496;51.040;13.680;2023-04-25T11:44:45;1.67;;;1.52;;
25637;SDS011;13496;51.040;13.680;2023-04-25T11:49:46;1.70;;;1.60;;
25637;SDS011;13496;51.040;13.680;2023-04-25T11:54:50;1.50;;;1.40;;
25637;SDS011;13496;51.040;13.680;2023-04-25T11:59:51;2.00;;;1.80;;
25637;SDS011;13496;51.040;13.680;2023-04-25T12:04:53;2.13;;;1.73;;
25637;SDS011;13496;51.040;13.680;2023-04-25T12:09:55;1.60;;;1.48;;
25637;SDS011;13496;51.040;13.680;2023-04-25T12:14:57;3.08;;;1.52;;
25637;SDS011;13496;51.040;13.680;2023-04-25T12:20:14;2.92;;;1.80;;
25637;SDS011;13496;51.040;13.680;2023-04-25T12:36:02;1.58;;;1.48;;
25637;SDS011;13496;51.040;13.680;2023-04-25T12:41:09;1.48;;;1.38;;
25637;SDS011;13496;51.040;13.680;2023-04-25T12:46:11;1.48;;;1.38;;
25637;SDS011;13496;51.040;13.680;2023-04-25T12:51:13;1.88;;;1.67;;
25637;SDS011;13496;51.040;13.680;2023-04-25T12:56:14;1.88;;;1.35;;
25637;SDS011;13496;51.040;13.680;2023-04-25T13:01:16;3.17;;;1.90;;
25637;SDS011;13496;51.040;13.680;2023-04-25T13:06:19;2.72;;;1.60;;
25637;SDS011;13496;51.040;13.680;2023-04-25T13:11:21;2.85;;;1.83;;
25637;SDS011;13496;51.040;13.680;2023-04-25T13:16:23;2.17;;;1.90;;
25637;SDS011;13496;51.040;13.680;2023-04-25T13:21:25;1.52;;;1.42;;
25637;SDS011;13496;51.040;13.680;2023-04-25T13:26:26;2.80;;;1.92;;
25637;SDS011;13496;51.040;13.680;2023-04-25T13:31:28;2.55;;;1.70;;
25637;SDS011;13496;51.040;13.680;2023-04-25T13:36:30;2.70;;;2.17;;
25637;SDS011;13496;51.040;13.680;2023-04-25T13:41:33;2.92;;;2.00;;
25637;SDS011;13496;51.040;13.680;2023-04-25T13:46:34;3.45;;;1.48;;
25637;SDS011;13496;51.040;13.680;2023-04-25T13:51:36;4.25;;;1.85;;
25637;SDS011;13496;51.040;13.680;2023-04-25T13:56:38;2.88;;;1.90;;
25637;SDS011;13496;51.040;13.680;2023-04-25T14:01:39;2.70;;;1.90;;
25637;SDS011;13496;51.040;13.680;2023-04-25T14:06:41;2.13;;;1.92;;
25637;SDS011;13496;51.040;13.680;2023-04-25T14:11:43;2.03;;;1.83;;
25637;SDS011;13496;51.040;13.680;2023-04-25T14:16:45;2.72;;;1.90;;
25637;SDS011;13496;51.040;13.680;2023-04-25T14:21:47;3.95;;;2.13;;
25637;SDS011;13496;51.040;13.680;2023-04-25T14:26:48;2.42;;;1.70;;
25637;SDS011;13496;51.040;13.680;2023-04-25T14:31:50;2.63;;;1.52;;
25637;SDS011;13496;51.040;13.680;2023-04-25T14:36:52;2.90;;;2.03;;
25637;SDS011;13496;51.040;13.680;2023-04-25T14:41:54;2.47;;;1.90;;
25637;SDS011;13496;51.040;13.680;2023-04-25T14:46:55;4.00;;;1.92;;
25637;SDS011;13496;51.040;13.680;2023-04-25T14:51:57;2.30;;;2.08;;
25637;SDS011;13496;51.040;13.680;2023-04-25T14:56:59;2.05;;;1.70;;
25637;SDS011;13496;51.040;13.680;2023-04-25T15:02:01;3.65;;;2.00;;
25637;SDS011;13496;51.040;13.680;2023-04-25T15:07:03;3.33;;;1.88;;
25637;SDS011;13496;51.040;13.680;2023-04-25T15:12:05;5.05;;;2.03;;
25637;SDS011;13496;51.040;13.680;2023-04-25T15:17:07;3.85;;;2.17;;
25637;SDS011;13496;51.040;13.680;2023-04-25T15:22:08;3.55;;;1.95;;
25637;SDS011;13496;51.040;13.680;2023-04-25T15:27:10;4.20;;;1.60;;
25637;SDS011;13496;51.040;13.680;2023-04-25T15:32:12;3.13;;;2.00;;
25637;SDS011;13496;51.040;13.680;2023-04-25T15:37:14;4.00;;;2.20;;
25637;SDS011;13496;51.040;13.680;2023-04-25T15:42:15;2.60;;;1.98;;
25637;SDS011;13496;51.040;13.680;2023-04-25T15:47:17;2.95;;;1.83;;
25637;SDS011;13496;51.040;13.680;2023-04-25T15:52:19;2.72;;;1.83;;
25637;SDS011;13496;51.040;13.680;2023-04-25T15:57:22;3.65;;;1.70;;
25637;SDS011;13496;51.040;13.680;2023-04-25T16:02:24;2.90;;;1.77;;
25637;SDS011;13496;51.040;13.680;2023-04-25T16:07:26;3.47;;;1.90;;
25637;SDS011;13496;51.040;13.680;2023-04-25T16:12:28;2.95;;;1.98;;
25637;SDS011;13496;51.040;13.680;2023-04-25T16:17:31;2.00;;;1.50;;
25637;SDS011;13496;51.040;13.680;2023-04-25T16:22:33;2.92;;;1.70;;
25637;SDS011;13496;51.040;13.680;2023-04-25T16:27:35;3.08;;;2.15;;
25637;SDS011;13496;51.040;13.680;2023-04-25T16:32:40;3.80;;;2.17;;
25637;SDS011;13496;51.040;13.680;2023-04-25T16:37:41;3.53;;;1.73;;
25637;SDS011;13496;51.040;13.680;2023-04-25T16:42:43;4.00;;;1.88;;
25637;SDS011;13496;51.040;13.680;2023-04-25T16:47:45;4.05;;;1.85;;
25637;SDS011;13496;51.040;13.680;2023-04-25T16:52:46;2.95;;;2.10;;
25637;SDS011;13496;51.040;13.680;2023-04-25T16:57:48;2.22;;;1.88;;
25637;SDS011;13496;51.040;13.680;2023-04-25T17:02:50;3.85;;;1.90;;
25637;SDS011;13496;51.040;13.680;2023-04-25T17:07:52;2.20;;;1.70;;
25637;SDS011;13496;51.040;13.680;2023-04-25T17:12:54;2.22;;;1.70;;
25637;SDS011;13496;51.040;13.680;2023-04-25T17:17:55;2.88;;;1.98;;
25637;SDS011;13496;51.040;13.680;2023-04-25T17:22:57;2.70;;;1.70;;
25637;SDS011;13496;51.040;13.680;2023-04-25T17:28:00;2.83;;;1.50;;
25637;SDS011;13496;51.040;13.680;2023-04-25T17:33:01;2.90;;;1.63;;
25637;SDS011;13496;51.040;13.680;2023-04-25T17:38:04;3.60;;;1.80;;
25637;SDS011;13496;51.040;13.680;2023-04-25T17:43:06;3.10;;;1.75;;
25637;SDS011;13496;51.040;13.680;2023-04-25T17:48:08;3.63;;;1.90;;
25637;SDS011;13496;51.040;13.680;2023-04-25T17:53:09;4.13;;;1.90;;
25637;SDS011;13496;51.040;13.680;2023-04-25T17:58:11;2.47;;;1.80;;
25637;SDS011;13496;51.040;13.680;2023-04-25T18:03:13;4.07;;;1.90;;
25637;SDS011;13496;51.040;13.680;2023-04-25T18:08:14;5.20;;;1.77;;
25637;SDS011;13496;51.040;13.680;2023-04-25T18:13:16;3.58;;;1.90;;
25637;SDS011;13496;51.040;13.680;2023-04-25T18:18:23;3.28;;;2.00;;
25637;SDS011;13496;51.040;13.680;2023-04-25T18:23:28;4.13;;;1.52;;
25637;SDS011;13496;51.040;13.680;2023-04-25T18:28:29;4.13;;;2.05;;
25637;SDS011;13496;51.040;13.680;2023-04-25T18:33:31;3.58;;;2.10;;
25637;SDS011;13496;51.040;13.680;2023-04-25T18:38:33;3.28;;;1.90;;
25637;SDS011;13496;51.040;13.680;2023-04-25T18:43:35;4.95;;;1.80;;
25637;SDS011;13496;51.040;13.680;2023-04-25T18:48:36;3.08;;;1.70;;
25637;SDS011;13496;51.040;13.680;2023-04-25T18:53:38;2.20;;;1.75;;
25637;SDS011;13496;51.040;13.680;2023-04-25T18:58:41;3.03;;;1.77;;
25637;SDS011;13496;51.040;13.680;2023-04-25T19:03:46;3.78;;;1.98;;
25637;SDS011;13496;51.040;13.680;2023-04-25T19:08:49;2.78;;;1.92;;
25637;SDS011;13496;51.040;13.680;2023-04-25T19:13:52;2.80;;;1.90;;
25637;SDS011;13496;51.040;13.680;2023-04-25T19:18:57;2.40;;;1.90;;
25637;SDS011;13496;51.040;13.680;2023-04-25T19:23:58;2.17;;;1.60;;
25637;SDS011;13496;51.040;13.680;2023-04-25T19:29:08;2.40;;;1.80;;
25637;SDS011;13496;51.040;13.680;2023-04-25T19:34:14;2.17;;;1.77;;
25637;SDS011;13496;51.040;13.680;2023-04-25T19:39:16;3.70;;;1.73;;
25637;SDS011;13496;51.040;13.680;2023-04-25T19:44:18;1.85;;;1.55;;
25637;SDS011;13496;51.040;13.680;2023-04-25T19:49:20;2.63;;;1.88;;
25637;SDS011;13496;51.040;13.680;2023-04-25T19:54:21;4.32;;;1.90;;
25637;SDS011;13496;51.040;13.680;2023-04-25T19:59:23;2.65;;;1.60;;
25637;SDS011;13496;51.040;13.680;2023-04-25T20:04:25;1.80;;;1.55;;
25637;SDS011;13496;51.040;13.680;2023-04-25T20:09:27;2.75;;;1.60;;
25637;SDS011;13496;51.040;13.680;2023-04-25T20:14:28;2.00;;;1.50;;
25637;SDS011;13496;51.040;13.680;2023-04-25T20:19:30;1.40;;;1.23;;
25637;SDS011;13496;51.040;13.680;2023-04-25T20:24:33;3.25;;;1.55;;
25637;SDS011;13496;51.040;13.680;2023-04-25T20:29:34;1.70;;;1.60;;
25637;SDS011;13496;51.040;13.680;2023-04-25T20:34:36;2.75;;;1.67;;
25637;SDS011;13496;51.040;13.680;2023-04-25T20:39:38;1.55;;;1.45;;
25637;SDS011;13496;51.040;13.680;2023-04-25T20:44:39;3.17;;;1.67;;
25637;SDS011;13496;51.040;13.680;2023-04-25T20:49:41;1.60;;;1.40;;
25637;SDS011;13496;51.040;13.680;2023-04-25T20:54:43;2.63;;;1.30;;
25637;SDS011;13496;51.040;13.680;2023-04-25T20:59:46;1.58;;;1.48;;
25637;SDS011;13496;51.040;13.680;2023-04-25T21:04:48;1.55;;;1.40;;
25637;SDS011;13496;51.040;13.680;2023-04-25T21:09:50;1.95;;;1.42;;
25637;SDS011;13496;51.040;13.680;2023-04-25T21:14:51;2.03;;;1.50;;
25637;SDS011;13496;51.040;13.680;2023-04-25T21:19:53;1.88;;;1.60;;
25637;SDS011;13496;51.040;13.680;2023-04-25T21:24:55;1.50;;;1.40;;
25637;SDS011;13496;51.040;13.680;2023-04-25T21:30:04;1.83;;;1.33;;
25637;SDS011;13496;51.040;13.680;2023-04-25T21:35:06;2.45;;;1.63;;
25637;SDS011;13496;51.040;13.680;2023-04-25T21:40:08;1.88;;;1.35;;
25637;SDS011;13496;51.040;13.680;2023-04-25T21:45:10;2.38;;;1.50;;
25637;SDS011;13496;51.040;13.680;2023-04-25T21:50:12;2.58;;;1.38;;
25637;SDS011;13496;51.040;13.680;2023-04-25T21:55:15;1.40;;;1.30;;
25637;SDS011;13496;51.040;13.680;2023-04-25T22:00:17;1.25;;;1.15;;
25637;SDS011;13496;51.040;13.680;2023-04-25T22:05:24;1.95;;;1.60;;
25637;SDS011;13496;51.040;13.680;2023-04-25T22:10:27;1.30;;;1.17;;
25637;SDS011;13496;51.040;13.680;2023-04-25T22:15:29;2.00;;;1.25;;
25637;SDS011;13496;51.040;13.680;2023-04-25T22:20:31;1.33;;;1.23;;
25637;SDS011;13496;51.040;13.680;2023-04-25T22:25:33;1.92;;;1.40;;
25637;SDS011;13496;51.040;13.680;2023-04-25T22:30:35;1.50;;;1.20;;
25637;SDS011;13496;51.040;13.680;2023-04-25T22:35:38;1.65;;;1.20;;
25637;SDS011;13496;51.040;13.680;2023-04-25T22:40:39;1.63;;;1.27;;
25637;SDS011;13496;51.040;13.680;2023-04-25T22:45:41;1.50;;;1.27;;
25637;SDS011;13496;51.040;13.680;2023-04-25T22:50:43;1.77;;;1.27;;
25637;SDS011;13496;51.040;13.680;2023-04-25T22:55:53;1.48;;;1.25;;
25637;SDS011;13496;51.040;13.680;2023-04-25T23:00:56;2.55;;;1.40;;
25637;SDS011;13496;51.040;13.680;2023-04-25T23:05:57;3.30;;;1.30;;
25637;SDS011;13496;51.040;13.680;2023-04-25T23:11:04;1.83;;;1.33;;
25637;SDS011;13496;51.040;13.680;2023-04-25T23:16:07;1.73;;;1.17;;
25637;SDS011;13496;51.040;13.680;2023-04-25T23:21:09;1.20;;;1.10;;
25637;SDS011;13496;51.040;13.680;2023-04-25T23:26:12;1.35;;;1.25;;
25637;SDS011;13496;51.040;13.680;2023-04-25T23:31:14;1.20;;;1.10;;
25637;SDS011;13496;51.040;13.680;2023-04-25T23:36:16;1.27;;;1.15;;
25637;SDS011;13496;51.040;13.680;2023-04-25T23:41:21;1.45;;;1.20;;
25637;SDS011;13496;51.040;13.680;2023-04-25T23:46:23;1.50;;;1.00;;
25637;SDS011;13496;51.040;13.680;2023-04-25T23:51:24;1.65;;;1.38;;
25637;SDS011;13496;51.040;13.680;2023-04-25T23:56:26;1.33;;;1.23;;
